Time;durP1;ratioP1;P1;durP2;ratioP2;P2;SDS_P1;SDS_P2;PMS_P1;PMS_P2;Temp;Humidity;BMP_temperature;BMP_pressure;BME280_temperature;BME280_humidity;BME280_pressure;Samples;Min_cycle;Max_cycle;Signal;HPM_P1;HPM_P2
2022/12/09 00:02:18;;;;;;;26.98;13.98;;;;;;;;;;6117120;23;20018;-84
2022/12/09 00:04:43;;;;;;;27.25;13.88;;;;;;;;;;6116832;23;20093;-84
2022/12/09 00:07:11;;;;;;;23.77;12.63;;;;;;;;;;6117378;23;20014;-83
2022/12/09 00:09:37;;;;;;;25.58;13.35;;;;;;;;;;6092658;23;20678;-84
2022/12/09 00:12:02;;;;;;;25.70;13.68;;;;;;;;;;6117258;23;20006;-84
2022/12/09 00:14:28;;;;;;;27.70;13.60;;;;;;;;;;6093089;23;20026;-84
2022/12/09 00:16:53;;;;;;;27.38;13.52;;;;;;;;;;6092770;23;20045;-84
2022/12/09 00:19:19;;;;;;;24.98;12.48;;;;;;;;;;6117655;23;20014;-84
2022/12/09 00:21:44;;;;;;;23.80;12.85;;;;;;;;;;6092131;23;20021;-84
2022/12/09 00:24:11;;;;;;;25.95;12.77;;;;;;;;;;6093282;23;20014;-84
2022/12/09 00:26:37;;;;;;;25.10;13.25;;;;;;;;;;6116658;23;20024;-83
2022/12/09 00:29:06;;;;;;;25.92;11.95;;;;;;;;;;6117698;23;20442;-85
2022/12/09 00:31:34;;;;;;;25.92;12.38;;;;;;;;;;6092319;23;20028;-84
2022/12/09 00:34:02;;;;;;;24.27;11.98;;;;;;;;;;6117022;23;20073;-84
2022/12/09 00:36:28;;;;;;;24.70;12.10;;;;;;;;;;6091809;23;20110;-84
2022/12/09 00:38:55;;;;;;;27.00;13.32;;;;;;;;;;6117512;23;20465;-84
2022/12/09 00:41:20;;;;;;;26.52;12.60;;;;;;;;;;6116541;23;20603;-84
2022/12/09 00:43:46;;;;;;;25.30;12.40;;;;;;;;;;6093111;23;20018;-84
2022/12/09 00:46:12;;;;;;;27.02;12.25;;;;;;;;;;6091813;23;20017;-83
2022/12/09 00:48:38;;;;;;;28.92;12.52;;;;;;;;;;6118547;23;20020;-84
2022/12/09 00:51:08;;;;;;;25.52;12.40;;;;;;;;;;6115853;23;20089;-84
2022/12/09 00:53:34;;;;;;;23.40;11.63;;;;;;;;;;6117732;23;20014;-83
2022/12/09 00:55:59;;;;;;;26.95;12.55;;;;;;;;;;6091662;23;21041;-81
2022/12/09 00:58:25;;;;;;;30.30;12.30;;;;;;;;;;6093165;23;20033;-83
2022/12/09 01:00:52;;;;;;;26.38;12.30;;;;;;;;;;6092058;23;20049;-83
2022/12/09 01:03:18;;;;;;;31.05;12.15;;;;;;;;;;6093759;23;20010;-83
2022/12/09 01:05:43;;;;;;;23.35;10.73;;;;;;;;;;6115863;23;20029;-82
2022/12/09 01:08:10;;;;;;;27.55;11.02;;;;;;;;;;6092992;23;20025;-84
2022/12/09 01:10:37;;;;;;;22.98;11.98;;;;;;;;;;6116896;23;20442;-84
2022/12/09 01:13:02;;;;;;;23.10;10.80;;;;;;;;;;6093164;23;20017;-84
2022/12/09 01:15:28;;;;;;;27.13;12.40;;;;;;;;;;6116166;23;20037;-84
2022/12/09 01:17:53;;;;;;;21.08;9.98;;;;;;;;;;6092401;23;20021;-85
2022/12/09 01:20:19;;;;;;;23.42;10.75;;;;;;;;;;6116553;23;20087;-84
2022/12/09 01:22:45;;;;;;;23.90;11.77;;;;;;;;;;6080193;23;20016;-83
2022/12/09 01:25:11;;;;;;;21.63;10.52;;;;;;;;;;6092648;23;20017;-83
2022/12/09 01:27:36;;;;;;;25.92;12.07;;;;;;;;;;6092823;23;20133;-84
2022/12/09 01:30:02;;;;;;;22.73;11.10;;;;;;;;;;6116489;23;20065;-83
2022/12/09 01:32:27;;;;;;;23.48;10.63;;;;;;;;;;6092952;23;20088;-84
2022/12/09 01:34:55;;;;;;;24.52;10.55;;;;;;;;;;6092032;23;20462;-84
2022/12/09 01:37:21;;;;;;;24.25;10.95;;;;;;;;;;6092247;23;20022;-83
2022/12/09 01:39:46;;;;;;;23.60;11.13;;;;;;;;;;6092494;23;20484;-84
2022/12/09 01:42:20;;;;;;;23.40;11.40;;;;;;;;;;6116601;23;20021;-83
2022/12/09 01:45:23;;;;;;;23.40;11.07;;;;;;;;;;6092023;23;20688;-84
2022/12/09 01:47:56;;;;;;;24.02;11.18;;;;;;;;;;6116862;23;20022;-84
2022/12/09 01:50:21;;;;;;;23.83;11.10;;;;;;;;;;6091520;23;20029;-84
2022/12/09 01:52:48;;;;;;;21.92;10.68;;;;;;;;;;6092936;23;20014;-83
2022/12/09 01:55:13;;;;;;;21.52;10.27;;;;;;;;;;6091965;23;20041;-83
2022/12/09 01:57:39;;;;;;;20.85;10.93;;;;;;;;;;6092327;23;20084;-84
2022/12/09 02:00:05;;;;;;;25.20;11.15;;;;;;;;;;6115402;23;20033;-84
2022/12/09 02:02:33;;;;;;;20.50;10.10;;;;;;;;;;6116323;23;20461;-84
2022/12/09 02:04:59;;;;;;;22.27;10.15;;;;;;;;;;6091868;23;20044;-83
2022/12/09 02:07:25;;;;;;;22.52;10.75;;;;;;;;;;6115810;23;20022;-83
2022/12/09 02:09:51;;;;;;;21.52;10.43;;;;;;;;;;6116712;23;20482;-84
2022/12/09 02:12:36;;;;;;;21.27;10.05;;;;;;;;;;6115697;23;20014;-83
2022/12/09 02:15:05;;;;;;;20.58;10.70;;;;;;;;;;6116757;23;20525;-84
2022/12/09 02:17:44;;;;;;;21.60;9.73;;;;;;;;;;6091912;23;20083;-84
2022/12/09 02:20:18;;;;;;;20.23;9.32;;;;;;;;;;6090354;23;20013;-84
2022/12/09 02:22:51;;;;;;;20.10;9.77;;;;;;;;;;6116360;23;20401;-84
2022/12/09 02:25:47;;;;;;;24.13;10.60;;;;;;;;;;6090615;23;20025;-83
2022/12/09 02:28:18;;;;;;;19.90;9.63;;;;;;;;;;6092450;23;20446;-84
2022/12/09 02:31:02;;;;;;;21.48;10.38;;;;;;;;;;6114816;23;20014;-84
2022/12/09 02:34:03;;;;;;;24.20;11.15;;;;;;;;;;6116343;23;20020;-85
2022/12/09 02:36:35;;;;;;;18.55;9.73;;;;;;;;;;6094178;23;20413;-84
2022/12/09 02:39:02;;;;;;;23.45;10.80;;;;;;;;;;6116706;23;20022;-84
2022/12/09 02:41:28;;;;;;;21.40;10.13;;;;;;;;;;6091013;23;20370;-84
2022/12/09 02:43:59;;;;;;;22.15;9.75;;;;;;;;;;6092372;23;20384;-83
2022/12/09 02:46:24;;;;;;;21.27;10.45;;;;;;;;;;6091446;23;20124;-83
2022/12/09 02:48:53;;;;;;;24.17;10.35;;;;;;;;;;6118465;23;20014;-84
2022/12/09 02:51:20;;;;;;;19.45;9.23;;;;;;;;;;6117077;23;20033;-84
2022/12/09 02:53:49;;;;;;;21.20;10.88;;;;;;;;;;6093856;23;20434;-83
2022/12/09 02:56:16;;;;;;;20.58;10.60;;;;;;;;;;6092985;23;20327;-84
2022/12/09 02:58:44;;;;;;;18.73;9.13;;;;;;;;;;6118091;23;20014;-84
2022/12/09 03:01:57;;;;;;;21.85;10.95;;;;;;;;;;6093539;23;20017;-83
2022/12/09 03:04:24;;;;;;;18.77;9.52;;;;;;;;;;6054929;23;20018;-84
2022/12/09 03:06:52;;;;;;;26.00;10.95;;;;;;;;;;6092738;23;20093;-83
2022/12/09 03:09:21;;;;;;;18.52;9.13;;;;;;;;;;6093896;23;20014;-84
2022/12/09 03:11:46;;;;;;;20.65;9.68;;;;;;;;;;6092493;23;20010;-84
2022/12/09 03:14:16;;;;;;;16.63;9.48;;;;;;;;;;6117830;23;20017;-83
2022/12/09 03:16:48;;;;;;;20.55;9.55;;;;;;;;;;6092015;23;20014;-83
2022/12/09 03:19:22;;;;;;;22.90;10.10;;;;;;;;;;6118455;23;20183;-84
2022/12/09 03:21:49;;;;;;;18.58;9.45;;;;;;;;;;6116763;23;20029;-84
2022/12/09 03:24:19;;;;;;;20.97;9.73;;;;;;;;;;6093250;23;20117;-84
2022/12/09 03:26:46;;;;;;;20.63;9.80;;;;;;;;;;6092860;23;20700;-84
2022/12/09 03:29:16;;;;;;;17.50;8.70;;;;;;;;;;6093661;23;20402;-84
2022/12/09 03:31:42;;;;;;;19.02;9.68;;;;;;;;;;6117272;23;20451;-83
2022/12/09 03:34:15;;;;;;;21.45;9.32;;;;;;;;;;6117854;23;20450;-84
2022/12/09 03:36:45;;;;;;;18.48;9.27;;;;;;;;;;6092462;23;20026;-85
2022/12/09 03:39:14;;;;;;;17.63;9.02;;;;;;;;;;6093555;23;20017;-84
2022/12/09 03:41:48;;;;;;;21.58;11.32;;;;;;;;;;6117187;23;20013;-84
2022/12/09 03:44:20;;;;;;;20.00;10.02;;;;;;;;;;6117855;23;20030;-83
2022/12/09 03:46:46;;;;;;;18.60;9.02;;;;;;;;;;6116038;23;20049;-84
2022/12/09 03:49:14;;;;;;;22.30;10.35;;;;;;;;;;6093272;23;20342;-83
2022/12/09 03:51:56;;;;;;;19.90;10.20;;;;;;;;;;6117223;23;20036;-84
2022/12/09 03:54:44;;;;;;;17.77;8.93;;;;;;;;;;6117502;23;20033;-84
2022/12/09 03:57:13;;;;;;;19.52;9.30;;;;;;;;;;6092015;23;20013;-84
2022/12/09 03:59:44;;;;;;;19.33;9.77;;;;;;;;;;6117901;23;20091;-84
2022/12/09 04:02:10;;;;;;;20.38;9.98;;;;;;;;;;6116708;23;20018;-84
2022/12/09 04:04:38;;;;;;;18.55;10.00;;;;;;;;;;6092859;23;20021;-84
2022/12/09 04:07:04;;;;;;;18.20;9.35;;;;;;;;;;6116388;23;20358;-84
2022/12/09 04:09:29;;;;;;;19.00;9.10;;;;;;;;;;6117254;23;20021;-83
2022/12/09 04:11:55;;;;;;;22.00;10.07;;;;;;;;;;6116633;23;20041;-84
2022/12/09 04:14:20;;;;;;;22.10;10.82;;;;;;;;;;6092462;23;20021;-83
2022/12/09 04:16:45;;;;;;;22.40;9.77;;;;;;;;;;6091383;23;20077;-84
2022/12/09 04:19:11;;;;;;;20.67;9.32;;;;;;;;;;6117655;23;20323;-82
2022/12/09 04:21:36;;;;;;;19.45;9.20;;;;;;;;;;6092535;23;20018;-83
2022/12/09 04:24:02;;;;;;;17.58;9.07;;;;;;;;;;6092596;23;20383;-84
2022/12/09 04:26:27;;;;;;;21.58;9.73;;;;;;;;;;6092053;23;20113;-83
2022/12/09 04:28:53;;;;;;;20.60;9.60;;;;;;;;;;6092992;23;20462;-83
2022/12/09 04:31:19;;;;;;;18.77;9.10;;;;;;;;;;6092165;23;20018;-83
2022/12/09 04:33:45;;;;;;;18.42;9.32;;;;;;;;;;6093145;23;20018;-83
2022/12/09 04:36:12;;;;;;;20.35;9.60;;;;;;;;;;6116829;23;20029;-83
2022/12/09 04:38:39;;;;;;;19.60;9.63;;;;;;;;;;6093320;23;20097;-83
2022/12/09 04:41:06;;;;;;;20.17;9.93;;;;;;;;;;6091642;23;20053;-84
2022/12/09 04:43:31;;;;;;;18.67;8.57;;;;;;;;;;6092697;23;20025;-84
2022/12/09 04:46:05;;;;;;;22.30;9.32;;;;;;;;;;6115943;23;20022;-84
2022/12/09 04:48:31;;;;;;;17.35;8.50;;;;;;;;;;6092784;23;20018;-84
2022/12/09 04:50:59;;;;;;;19.38;9.07;;;;;;;;;;6115991;23;20022;-84
2022/12/09 04:53:25;;;;;;;20.63;9.25;;;;;;;;;;6117047;23;20022;-84
2022/12/09 04:56:20;;;;;;;21.88;9.77;;;;;;;;;;6091156;23;20017;-84
2022/12/09 04:58:46;;;;;;;19.83;8.82;;;;;;;;;;6093486;23;20017;-84
2022/12/09 05:01:16;;;;;;;17.85;8.63;;;;;;;;;;6090850;23;20028;-81
2022/12/09 05:03:42;;;;;;;19.98;9.20;;;;;;;;;;6092734;23;20450;-83
2022/12/09 05:06:10;;;;;;;20.67;8.90;;;;;;;;;;6116314;23;20028;-84
2022/12/09 05:08:35;;;;;;;19.30;9.18;;;;;;;;;;6093007;23;20010;-84
2022/12/09 05:11:01;;;;;;;22.48;10.35;;;;;;;;;;6115395;23;20088;-84
2022/12/09 05:13:26;;;;;;;20.13;9.40;;;;;;;;;;6092781;23;20018;-84
2022/12/09 05:16:14;;;;;;;18.20;8.98;;;;;;;;;;6115813;23;20013;-84
2022/12/09 05:18:40;;;;;;;17.83;8.13;;;;;;;;;;6092663;23;20474;-84
2022/12/09 05:21:11;;;;;;;21.08;9.48;;;;;;;;;;6116264;23;20018;-84
2022/12/09 05:23:37;;;;;;;18.58;8.95;;;;;;;;;;6092549;23;20018;-84
2022/12/09 05:26:04;;;;;;;16.67;8.75;;;;;;;;;;6091141;23;20382;-83
2022/12/09 05:31:23;;;;;;;21.05;9.38;;;;;;;;;;5991088;23;20515;-88
2022/12/09 05:34:03;;;;;;;18.63;9.15;;;;;;;;;;6006751;23;20014;-88
2022/12/09 05:36:52;;;;;;;17.55;8.65;;;;;;;;;;5986154;23;20534;-89
2022/12/09 05:39:26;;;;;;;19.42;9.10;;;;;;;;;;6004845;23;20022;-89
2022/12/09 05:41:51;;;;;;;19.92;9.63;;;;;;;;;;6007673;23;20085;-88
2022/12/09 05:44:17;;;;;;;19.35;9.25;;;;;;;;;;6043350;23;20023;-88
2022/12/09 05:46:43;;;;;;;20.52;9.25;;;;;;;;;;6054641;23;20433;-88
2022/12/09 05:49:11;;;;;;;18.20;9.18;;;;;;;;;;6032146;23;20452;-88
2022/12/09 05:51:36;;;;;;;18.08;8.80;;;;;;;;;;6030519;23;20049;-88
2022/12/09 05:54:03;;;;;;;23.23;10.27;;;;;;;;;;6056911;23;20023;-87
2022/12/09 05:56:29;;;;;;;19.58;9.25;;;;;;;;;;6055109;23;20914;-87
2022/12/09 05:58:55;;;;;;;19.17;9.50;;;;;;;;;;6033031;23;20015;-83
2022/12/09 06:01:21;;;;;;;21.02;9.77;;;;;;;;;;6054760;23;20713;-83
2022/12/09 06:03:50;;;;;;;23.50;9.93;;;;;;;;;;6057274;23;20015;-83
2022/12/09 06:06:18;;;;;;;22.30;9.00;;;;;;;;;;6030890;23;20487;-84
2022/12/09 06:08:44;;;;;;;21.92;8.73;;;;;;;;;;6080224;23;20466;-83
2022/12/09 06:11:14;;;;;;;18.75;9.57;;;;;;;;;;6114936;23;20018;-84
2022/12/09 06:13:40;;;;;;;19.00;9.13;;;;;;;;;;6091364;23;20046;-83
2022/12/09 06:16:06;;;;;;;20.05;8.98;;;;;;;;;;6114499;23;20033;-84
2022/12/09 06:18:32;;;;;;;19.77;8.57;;;;;;;;;;6091432;23;20350;-84
2022/12/09 06:20:58;;;;;;;20.30;8.18;;;;;;;;;;6114791;23;20017;-84
2022/12/09 06:23:24;;;;;;;17.98;8.43;;;;;;;;;;6091850;23;20077;-87
2022/12/09 06:25:49;;;;;;;17.23;8.18;;;;;;;;;;6115121;23;20020;-87
2022/12/09 06:28:14;;;;;;;18.98;8.65;;;;;;;;;;6092002;23;20014;-87
2022/12/09 06:30:40;;;;;;;20.33;8.93;;;;;;;;;;6092002;23;20371;-87
2022/12/09 06:33:05;;;;;;;21.27;9.15;;;;;;;;;;6115943;23;20014;-88
2022/12/09 06:35:31;;;;;;;18.30;8.10;;;;;;;;;;6091517;23;20478;-88
2022/12/09 06:37:56;;;;;;;19.50;9.20;;;;;;;;;;6115570;23;20061;-87
2022/12/09 06:40:22;;;;;;;18.65;7.85;;;;;;;;;;6090489;23;20022;-84
2022/12/09 06:42:50;;;;;;;23.60;8.80;;;;;;;;;;6115070;23;20027;-84
2022/12/09 06:45:19;;;;;;;17.40;8.48;;;;;;;;;;6091024;23;20108;-84
2022/12/09 06:47:45;;;;;;;21.48;9.57;;;;;;;;;;6115638;23;20018;-84
2022/12/09 06:50:11;;;;;;;18.48;8.48;;;;;;;;;;6117295;23;20025;-90
2022/12/09 06:52:37;;;;;;;22.10;8.20;;;;;;;;;;6090068;23;20014;-90
2022/12/09 06:55:11;;;;;;;19.83;8.90;;;;;;;;;;6101242;23;21627;-90
2022/12/09 06:57:43;;;;;;;21.38;8.88;;;;;;;;;;6049277;23;20044;-92
2022/12/09 07:00:24;;;;;;;20.58;8.57;;;;;;;;;;6047677;23;20093;-92
2022/12/09 07:03:09;;;;;;;20.45;9.07;;;;;;;;;;6078562;23;20386;-92
2022/12/09 07:05:49;;;;;;;20.38;8.77;;;;;;;;;;6068001;23;20046;-92
2022/12/09 07:08:15;;;;;;;19.17;8.15;;;;;;;;;;6094401;23;20022;-93
2022/12/09 07:10:44;;;;;;;19.10;8.80;;;;;;;;;;6071689;23;20465;-92
2022/12/09 07:13:10;;;;;;;21.90;9.43;;;;;;;;;;6090800;23;20017;-91
2022/12/09 07:15:41;;;;;;;20.65;9.02;;;;;;;;;;6073093;23;20823;-91
2022/12/09 07:18:15;;;;;;;20.83;9.45;;;;;;;;;;6087769;23;20072;-91
2022/12/09 07:20:46;;;;;;;20.67;9.32;;;;;;;;;;6084692;23;20693;-92
2022/12/09 07:23:12;;;;;;;23.67;9.82;;;;;;;;;;6045935;23;20101;-92
2022/12/09 07:25:38;;;;;;;22.45;9.88;;;;;;;;;;6078146;23;20029;-93
2022/12/09 07:28:24;;;;;;;;;;;;;;;;;;;;;
2022/12/09 07:31:20;;;;;;;23.67;8.82;;;;;;;;;;6103252;23;20665;-94
2022/12/09 07:33:47;;;;;;;23.48;9.70;;;;;;;;;;6078243;23;20375;-95
2022/12/09 07:36:18;;;;;;;26.40;9.57;;;;;;;;;;6044454;23;20353;-94
2022/12/09 07:38:56;;;;;;;24.92;10.55;;;;;;;;;;6045978;23;20098;-95
2022/12/09 07:41:22;;;;;;;24.85;9.23;;;;;;;;;;6070569;23;20025;-95
2022/12/09 07:44:16;;;;;;;21.98;9.45;;;;;;;;;;6065236;23;20017;-93
2022/12/09 07:46:42;;;;;;;26.48;9.00;;;;;;;;;;6091803;23;20110;-95
2022/12/09 07:49:09;;;;;;;23.92;8.85;;;;;;;;;;6088669;23;20032;-94
2022/12/09 07:51:36;;;;;;;;;;;;;;;;;;6041997;23;20085;-92
2022/12/09 07:54:03;;;;;;;19.23;8.10;;;;;;;;;;6090927;23;19917;-92
2022/12/09 07:56:29;;;;;;;25.87;8.83;;;;;;;;;;6114364;23;20026;-93
2022/12/09 07:58:55;;;;;;;20.70;8.90;;;;;;;;;;6092553;23;20521;-93
2022/12/09 08:01:26;;;;;;;33.00;9.23;;;;;;;;;;6080242;23;20578;-93
2022/12/09 08:04:05;;;;;;;;;;;;;;;;;;;;;
2022/12/09 08:11:41;;;;;;;24.80;8.13;;;;;;;;;;6028983;23;20031;-94
2022/12/09 08:14:10;;;;;;;21.92;7.78;;;;;;;;;;5977403;23;20015;-94
2022/12/09 08:16:35;;;;;;;23.63;9.02;;;;;;;;;;5957929;23;19999;-82
2022/12/09 08:19:01;;;;;;;16.25;7.95;;;;;;;;;;5968074;23;20203;-93
2022/12/09 08:21:29;;;;;;;21.13;8.65;;;;;;;;;;5945568;23;20039;-91
2022/12/09 08:23:56;;;;;;;23.88;9.23;;;;;;;;;;5966965;23;20562;-93
2022/12/09 08:26:23;;;;;;;19.35;7.95;;;;;;;;;;6053553;23;20031;-92
2022/12/09 08:28:49;;;;;;;23.38;8.93;;;;;;;;;;6030998;23;20015;-92
2022/12/09 08:31:19;;;;;;;20.13;7.88;;;;;;;;;;5997160;23;20030;-92
2022/12/09 08:33:45;;;;;;;20.92;7.35;;;;;;;;;;5959169;23;20038;-93
2022/12/09 08:36:16;;;;;;;19.98;8.27;;;;;;;;;;5956322;23;20019;-93
2022/12/09 08:38:42;;;;;;;18.83;7.80;;;;;;;;;;5934560;23;20456;-93
2022/12/09 08:41:17;;;;;;;21.10;8.52;;;;;;;;;;5935473;23;20023;-93
2022/12/09 08:43:45;;;;;;;18.83;8.18;;;;;;;;;;5926780;23;20015;-93
2022/12/09 08:46:15;;;;;;;18.38;7.70;;;;;;;;;;5967879;23;20026;-91
2022/12/09 08:48:41;;;;;;;19.17;7.50;;;;;;;;;;5978035;23;20016;-93
2022/12/09 08:51:09;;;;;;;21.17;8.30;;;;;;;;;;5978478;23;20022;-91
2022/12/09 08:53:40;;;;;;;21.52;8.00;;;;;;;;;;5959246;23;20023;-93
2022/12/09 08:56:08;;;;;;;19.60;8.32;;;;;;;;;;5923406;23;20456;-93
2022/12/09 08:58:36;;;;;;;;;;;;;;;;;;5968335;23;20036;-93
2022/12/09 09:01:04;;;;;;;15.43;6.18;;;;;;;;;;5969945;23;19919;-93
2022/12/09 09:03:30;;;;;;;15.70;6.72;;;;;;;;;;5958302;23;20536;-93
2022/12/09 09:06:08;;;;;;;18.30;7.05;;;;;;;;;;5952916;23;20019;-94
2022/12/09 09:08:36;;;;;;;17.00;6.38;;;;;;;;;;5947462;23;20091;-92
2022/12/09 09:11:13;;;;;;;18.45;6.13;;;;;;;;;;5927235;23;24617;-92
2022/12/09 09:13:39;;;;;;;;;;;;;;;;;;5968928;23;20528;-94
2022/12/09 09:16:16;;;;;;;13.55;6.13;;;;;;;;;;5982061;23;19909;-92
2022/12/09 09:18:45;;;;;;;15.32;6.40;;;;;;;;;;5940008;23;20016;-94
2022/12/09 09:21:22;;;;;;;15.70;6.82;;;;;;;;;;5945117;23;20475;-94
2022/12/09 09:23:50;;;;;;;14.10;6.68;;;;;;;;;;5921204;23;20114;-94
2022/12/09 09:26:18;;;;;;;19.25;6.45;;;;;;;;;;5943525;23;20027;-91
2022/12/09 09:28:49;;;;;;;14.52;6.78;;;;;;;;;;5944921;23;20019;-93
2022/12/09 09:31:18;;;;;;;16.15;6.10;;;;;;;;;;5925680;23;20024;-94
2022/12/09 09:33:44;;;;;;;15.60;6.82;;;;;;;;;;5981096;23;20023;-93
2022/12/09 09:36:13;;;;;;;15.75;6.50;;;;;;;;;;5977720;23;20041;-92
2022/12/09 09:39:21;;;;;;;17.23;7.00;;;;;;;;;;5966106;23;20019;-93
2022/12/09 09:42:01;;;;;;;14.10;6.47;;;;;;;;;;6009228;23;20047;-94
2022/12/09 09:44:46;;;;;;;15.77;6.50;;;;;;;;;;5967823;23;20056;-88
2022/12/09 09:47:42;;;;;;;14.48;6.63;;;;;;;;;;5990389;23;20120;-93
2022/12/09 09:50:58;;;;;;;16.73;5.97;;;;;;;;;;5991353;23;20094;-93
2022/12/09 09:53:29;;;;;;;15.00;5.72;;;;;;;;;;5856470;24;20036;-92
2022/12/09 09:56:04;;;;;;;16.02;6.47;;;;;;;;;;5816149;24;20021;-92
2022/12/09 09:58:43;;;;;;;13.55;6.13;;;;;;;;;;5869102;24;20102;-92
2022/12/09 10:01:13;;;;;;;15.15;6.88;;;;;;;;;;5837621;24;20082;-93
2022/12/09 10:03:50;;;;;;;16.30;7.10;;;;;;;;;;5799364;24;20026;-92
2022/12/09 10:06:19;;;;;;;14.70;6.35;;;;;;;;;;5886999;24;20482;-93
2022/12/09 10:09:08;;;;;;;13.73;6.93;;;;;;;;;;5852254;24;20018;-94
2022/12/09 10:15:15;;;;;;;14.82;6.55;;;;;;;;;;5845669;24;20374;-93
2022/12/09 10:17:54;;;;;;;15.68;6.72;;;;;;;;;;5869768;24;20656;-82
2022/12/09 10:20:26;;;;;;;15.68;7.43;;;;;;;;;;5890845;24;20044;-92
2022/12/09 10:23:13;;;;;;;16.58;7.45;;;;;;;;;;5860530;24;20013;-91
2022/12/09 10:25:52;;;;;;;14.20;6.53;;;;;;;;;;5870140;24;20481;-90
2022/12/09 10:28:22;;;;;;;17.02;7.68;;;;;;;;;;5870326;24;20025;-90
2022/12/09 10:30:49;;;;;;;15.40;7.25;;;;;;;;;;5961834;23;20049;-91
2022/12/09 10:33:17;;;;;;;16.73;7.47;;;;;;;;;;5976775;23;20023;-91
2022/12/09 10:35:43;;;;;;;19.52;6.47;;;;;;;;;;6011059;23;20251;-91
2022/12/09 10:38:11;;;;;;;18.75;7.30;;;;;;;;;;6006490;23;20150;-91
2022/12/09 10:40:42;;;;;;;13.60;6.18;;;;;;;;;;5987374;23;20082;-90
2022/12/09 10:43:37;;;;;;;14.35;6.30;;;;;;;;;;6029624;23;20019;-91
2022/12/09 10:46:14;;;;;;;15.35;6.65;;;;;;;;;;6027945;23;20031;-91
2022/12/09 10:48:54;;;;;;;12.43;6.15;;;;;;;;;;6032370;23;20095;-93
2022/12/09 10:51:55;;;;;;;14.65;6.63;;;;;;;;;;6002648;23;20283;-92
2022/12/09 10:54:36;;;;;;;15.57;6.88;;;;;;;;;;6007390;23;20452;-90
2022/12/09 10:57:10;;;;;;;14.52;6.43;;;;;;;;;;5982189;23;20030;-92
2022/12/09 10:59:37;;;;;;;13.82;6.22;;;;;;;;;;6029895;23;20042;-91
2022/12/09 11:02:18;;;;;;;16.05;6.68;;;;;;;;;;6004718;23;20019;-91
2022/12/09 11:04:44;;;;;;;19.48;7.18;;;;;;;;;;6005893;23;20487;-91
2022/12/09 11:07:25;;;;;;;19.08;7.47;;;;;;;;;;6005247;23;20071;-85
2022/12/09 11:09:59;;;;;;;13.25;6.15;;;;;;;;;;6032458;23;20011;-92
2022/12/09 11:12:31;;;;;;;13.65;6.80;;;;;;;;;;6000752;23;20027;-91
2022/12/09 11:15:24;;;;;;;15.13;7.10;;;;;;;;;;5997620;23;20109;-93
2022/12/09 11:18:41;;;;;;;16.83;7.45;;;;;;;;;;5988829;23;20019;-91
2022/12/09 11:21:27;;;;;;;15.60;7.13;;;;;;;;;;6020506;23;20087;-93
2022/12/09 11:23:54;;;;;;;17.00;7.30;;;;;;;;;;6020553;23;20095;-92
2022/12/09 11:26:31;;;;;;;16.55;7.15;;;;;;;;;;6008723;23;20024;-92
2022/12/09 11:29:14;;;;;;;16.88;7.28;;;;;;;;;;6019672;23;20052;-93
2022/12/09 11:31:42;;;;;;;15.02;7.82;;;;;;;;;;6005754;23;20090;-92
2022/12/09 11:34:22;;;;;;;17.45;7.78;;;;;;;;;;6010292;23;20020;-93
2022/12/09 11:36:57;;;;;;;14.70;7.22;;;;;;;;;;5991911;23;20356;-91
2022/12/09 11:39:36;;;;;;;14.98;7.25;;;;;;;;;;5998319;23;20489;-90
2022/12/09 11:42:19;;;;;;;16.05;6.90;;;;;;;;;;6006759;23;20500;-90
2022/12/09 11:45:05;;;;;;;13.27;6.45;;;;;;;;;;5987376;23;20021;-93
2022/12/09 11:47:38;;;;;;;16.27;6.88;;;;;;;;;;5946392;23;20409;-91
2022/12/09 11:50:19;;;;;;;14.18;6.78;;;;;;;;;;6007449;23;20019;-92
2022/12/09 11:52:46;;;;;;;14.13;6.63;;;;;;;;;;6009581;23;20083;-92
2022/12/09 11:55:22;;;;;;;13.80;6.57;;;;;;;;;;6008490;23;20766;-92
2022/12/09 11:57:54;;;;;;;13.30;6.43;;;;;;;;;;6010076;23;20530;-91
2022/12/09 12:00:25;;;;;;;13.93;6.95;;;;;;;;;;6005377;23;20034;-92
2022/12/09 12:02:58;;;;;;;20.30;6.45;;;;;;;;;;6008137;23;20011;-92
2022/12/09 12:05:25;;;;;;;13.70;6.72;;;;;;;;;;6007492;23;20035;-93
2022/12/09 12:08:02;;;;;;;17.60;7.68;;;;;;;;;;6002837;23;20046;-92
2022/12/09 12:10:33;;;;;;;18.88;7.97;;;;;;;;;;6021293;23;20097;-92
2022/12/09 12:13:05;;;;;;;23.08;7.55;;;;;;;;;;6013577;23;20038;-94
2022/12/09 12:15:31;;;;;;;17.33;7.47;;;;;;;;;;5997340;23;20139;-92
2022/12/09 12:17:57;;;;;;;17.98;7.40;;;;;;;;;;6020428;23;20019;-91
2022/12/09 12:20:40;;;;;;;18.58;8.20;;;;;;;;;;6008019;23;20027;-92
2022/12/09 12:23:20;;;;;;;15.55;7.70;;;;;;;;;;6032358;23;20456;-92
2022/12/09 12:26:12;;;;;;;18.98;8.70;;;;;;;;;;6006385;23;20464;-91
2022/12/09 12:29:03;;;;;;;19.38;8.55;;;;;;;;;;6008976;23;20460;-91
2022/12/09 12:31:47;;;;;;;22.95;8.63;;;;;;;;;;6031177;23;20035;-92
2022/12/09 12:34:26;;;;;;;19.30;8.95;;;;;;;;;;6018463;23;20026;-91
2022/12/09 12:37:08;;;;;;;25.42;10.52;;;;;;;;;;6030545;23;20448;-92
2022/12/09 12:40:02;;;;;;;25.42;10.80;;;;;;;;;;6005747;23;20023;-91
2022/12/09 12:42:33;;;;;;;22.33;10.80;;;;;;;;;;5983683;23;20023;-92
2022/12/09 12:47:59;;;;;;;17.95;8.48;;;;;;;;;;6037134;23;20359;-92
2022/12/09 12:51:05;;;;;;;21.45;9.80;;;;;;;;;;6032793;23;20027;-92
2022/12/09 12:53:35;;;;;;;22.90;10.33;;;;;;;;;;6032327;23;20075;-91
2022/12/09 12:56:08;;;;;;;29.00;10.70;;;;;;;;;;6021903;23;20485;-91
2022/12/09 12:58:58;;;;;;;23.40;10.32;;;;;;;;;;6020590;23;20361;-91
2022/12/09 13:01:33;;;;;;;25.67;11.50;;;;;;;;;;5998070;23;20023;-91
2022/12/09 13:04:14;;;;;;;25.05;10.90;;;;;;;;;;6010938;23;20088;-91
2022/12/09 13:06:51;;;;;;;28.30;11.50;;;;;;;;;;6019340;23;20321;-94
2022/12/09 13:13:02;;;;;;;27.17;11.13;;;;;;;;;;5950781;23;20039;-93
2022/12/09 13:15:35;;;;;;;25.83;11.80;;;;;;;;;;5943863;23;20028;-93
2022/12/09 13:18:15;;;;;;;29.48;11.98;;;;;;;;;;5940752;23;20019;-94
2022/12/09 13:21:12;;;;;;;29.67;12.75;;;;;;;;;;5933919;23;20031;-91
2022/12/09 13:24:11;;;;;;;27.48;13.05;;;;;;;;;;5947035;23;20016;-93
2022/12/09 13:27:07;;;;;;;31.35;12.50;;;;;;;;;;5884445;24;20028;-94
2022/12/09 13:33:51;;;;;;;;;;;;;;;;;;;;;
2022/12/09 13:36:31;;;;;;;30.17;12.73;;;;;;;;;;5883570;24;20643;-92
2022/12/09 13:38:59;;;;;;;29.08;11.82;;;;;;;;;;5914468;24;20354;-92
2022/12/09 13:41:28;;;;;;;28.88;12.63;;;;;;;;;;5833560;24;20465;-94
2022/12/09 13:44:30;;;;;;;35.20;15.27;;;;;;;;;;5887537;24;20525;-95
2022/12/09 13:47:26;;;;;;;34.55;14.00;;;;;;;;;;5881492;24;20024;-92
2022/12/09 13:50:00;;;;;;;32.83;14.05;;;;;;;;;;5895175;24;20341;-95
2022/12/09 13:53:06;;;;;;;34.80;14.25;;;;;;;;;;5909650;24;20036;-91
2022/12/09 13:55:49;;;;;;;32.00;13.82;;;;;;;;;;5916042;24;20084;-93
2022/12/09 13:58:36;;;;;;;26.95;12.73;;;;;;;;;;5923348;24;20046;-93
2022/12/09 14:01:23;;;;;;;23.63;10.65;;;;;;;;;;5911921;24;20013;-92
2022/12/09 14:04:44;;;;;;;29.02;11.55;;;;;;;;;;5848957;24;20024;-94
2022/12/09 14:07:54;;;;;;;25.98;11.65;;;;;;;;;;5872800;24;20020;-94
2022/12/09 14:10:46;;;;;;;26.27;12.35;;;;;;;;;;5799664;24;20026;-93
2022/12/09 14:14:21;;;;;;;28.92;11.45;;;;;;;;;;5827183;24;20029;-93
2022/12/09 14:17:00;;;;;;;24.00;10.73;;;;;;;;;;5756304;24;20024;-92
2022/12/09 14:19:26;;;;;;;29.23;11.23;;;;;;;;;;5819526;24;20055;-90
2022/12/09 14:22:37;;;;;;;22.90;11.18;;;;;;;;;;5807144;24;20036;-93
2022/12/09 14:25:27;;;;;;;26.95;11.88;;;;;;;;;;5836376;24;20021;-91
2022/12/09 14:28:39;;;;;;;;;;;;;;;;;;;;;
2022/12/09 14:34:42;;;;;;;21.52;9.30;;;;;;;;;;5866098;24;20055;-91
2022/12/09 14:37:21;;;;;;;21.80;9.32;;;;;;;;;;5846336;24;20461;-89
2022/12/09 14:39:52;;;;;;;22.23;9.63;;;;;;;;;;5859283;24;20083;-84
2022/12/09 14:42:35;;;;;;;20.33;9.00;;;;;;;;;;5817496;24;20608;-85
2022/12/09 14:45:41;;;;;;;20.20;9.48;;;;;;;;;;5863326;24;20810;-85
2022/12/09 14:48:11;;;;;;;24.80;9.90;;;;;;;;;;5902263;24;20356;-85
2022/12/09 14:50:37;;;;;;;20.88;9.15;;;;;;;;;;5898772;24;20028;-86
2022/12/09 14:53:08;;;;;;;18.90;8.50;;;;;;;;;;6014554;23;20122;-85
2022/12/09 14:55:39;;;;;;;24.23;9.77;;;;;;;;;;6006522;23;20353;-84
2022/12/09 14:58:05;;;;;;;21.50;9.93;;;;;;;;;;6007661;23;20007;-85
2022/12/09 15:00:35;;;;;;;20.15;9.38;;;;;;;;;;6006584;23;20313;-83
2022/12/09 15:03:01;;;;;;;22.23;9.43;;;;;;;;;;6008594;23;20019;-84
2022/12/09 15:05:30;;;;;;;21.07;10.33;;;;;;;;;;6006748;23;20453;-84
2022/12/09 15:07:55;;;;;;;23.15;9.70;;;;;;;;;;6008076;23;20290;-83
2022/12/09 15:10:21;;;;;;;21.27;9.77;;;;;;;;;;6006884;23;20015;-85
2022/12/09 15:12:52;;;;;;;23.38;9.68;;;;;;;;;;6031315;23;20118;-85
2022/12/09 15:15:31;;;;;;;19.25;9.18;;;;;;;;;;6006492;23;20034;-85
2022/12/09 15:18:05;;;;;;;19.02;8.75;;;;;;;;;;6008534;23;20024;-85
2022/12/09 15:20:32;;;;;;;21.92;9.57;;;;;;;;;;6006517;23;20022;-84
2022/12/09 15:23:06;;;;;;;22.70;9.68;;;;;;;;;;6008452;23;20764;-85
2022/12/09 15:25:33;;;;;;;20.60;9.70;;;;;;;;;;6031941;23;20509;-85
2022/12/09 15:27:59;;;;;;;;;;;;;;;;;;6008056;23;20015;-85
2022/12/09 15:30:34;;;;;;;17.73;8.57;;;;;;;;;;6032494;23;19921;-84
2022/12/09 15:33:00;;;;;;;22.45;9.02;;;;;;;;;;6007236;23;20019;-84